Weather at JAL Buildng Heliport

Public forecast

Using degrees Celsius for public forecast. Weather courtesy of forecast.io.

Closest aviation weather report (METAR) to JAL Buildng Heliport

Closest report is Tokyo Haneda International Airport, 4.3 nm (8.0 km) SSE.

2024/06/19 17:30 (retrieved 36 minutes ago)

RJTT 191730Z 21009KT 9999 FEW015 SCT/// 23/20 Q1010 NOSIG RMK 1CU015 A2985

Closest aviation forecast (TAF) to JAL Buildng Heliport

Closest forecast is Tokyo Haneda International Airport, 4.3 nm (8.0 km) SSE.

2024/06/19 18:28 (retrieved 0 seconds ago)

TAF RJTT 191705Z 1918/2100 23006KT 9999 FEW020 BECMG 1918/1920 30004KT BECMG 1922/2000 18010KT